Time,TemperatureF,DewpointF,PressureIn,WindDirection,WindDirectionDegrees,WindSpeedMPH,WindSpeedGustMPH,Humidity,HourlyPrecipIn,Conditions,Clouds,dailyrainin,SoftwareType,DateUTC
2012-08-12 00:00:00,73.2,48.7,29.94,NE,36,0.0,0.0,42,0.00,,,0.00,VWS V13.01,2012-08-12 05:00:00,
2012-08-12 00:05:00,73.3,47.6,29.94,NNE,31,0.0,0.0,40,0.00,,,0.00,VWS V13.01,2012-08-12 05:05:00,
2012-08-12 00:10:00,73.5,47.1,29.94,NNE,31,0.0,0.0,39,0.00,,,0.00,VWS V13.01,2012-08-12 05:10:00,
2012-08-12 00:15:00,73.7,47.2,29.94,NNE,31,0.0,0.0,39,0.00,,,0.00,VWS V13.01,2012-08-12 05:15:00,
2012-08-12 00:20:00,73.9,47.4,29.94,NNE,28,0.0,0.0,39,0.00,,,0.00,VWS V13.01,2012-08-12 05:20:00,
2012-08-12 00:25:00,74.2,47.7,29.94,NE,34,0.0,0.0,39,0.00,,,0.00,VWS V13.01,2012-08-12 05:25:00,
2012-08-12 00:30:00,74.6,47.3,29.94,NE,52,2.7,3.1,38,0.00,,,0.00,VWS V13.01,2012-08-12 05:30:00,
2012-08-12 00:35:00,75.0,47.7,29.94,NE,40,0.0,0.0,38,0.00,,,0.00,VWS V13.01,2012-08-12 05:35:00,
2012-08-12 00:40:00,75.5,48.1,29.94,NNE,28,2.7,4.0,38,0.00,,,0.00,VWS V13.01,2012-08-12 05:40:00,
2012-08-12 00:45:00,75.7,48.3,29.94,NNE,33,0.0,0.0,38,0.00,,,0.00,VWS V13.01,2012-08-12 05:45:00,
2012-08-12 00:50:00,75.9,48.5,29.94,NE,35,0.0,0.0,38,0.00,,,0.00,VWS V13.01,2012-08-12 05:50:00,
2012-08-12 00:55:00,76.0,48.6,29.94,NNE,28,0.0,0.0,38,0.00,,,0.00,VWS V13.01,2012-08-12 05:55:00,
2012-08-12 01:00:00,76.0,48.6,29.94,North,355,0.0,0.0,38,0.00,,,0.00,VWS V13.01,2012-08-12 06:00:00,
2012-08-12 01:05:00,76.0,48.6,29.94,North,7,0.0,2.2,38,0.00,,,0.00,VWS V13.01,2012-08-12 06:05:00,
2012-08-12 01:10:00,76.0,48.6,29.94,North,7,0.0,0.0,38,0.00,,,0.00,VWS V13.01,2012-08-12 06:10:00,
2012-08-12 01:15:00,75.9,48.5,29.94,North,7,0.0,0.0,38,0.00,,,0.00,VWS V13.01,2012-08-12 06:15:00,
2012-08-12 01:20:00,75.7,49.0,29.94,North,7,0.0,0.0,39,0.00,,,0.00,VWS V13.01,2012-08-12 06:20:00,
2012-08-12 01:25:00,75.3,48.7,29.94,North,7,0.0,0.0,39,0.00,,,0.00,VWS V13.01,2012-08-12 06:25:00,
2012-08-12 01:30:00,75.1,49.2,29.94,North,7,0.0,0.0,40,0.00,,,0.00,VWS V13.01,2012-08-12 06:30:00,
2012-08-12 01:35:00,74.8,49.5,29.94,NNE,23,0.0,0.0,41,0.00,,,0.00,VWS V13.01,2012-08-12 06:35:00,
2012-08-12 01:40:00,74.4,49.9,29.94,NNE,22,0.0,0.0,42,0.00,,,0.00,VWS V13.01,2012-08-12 06:40:00,
2012-08-12 01:45:00,74.4,49.9,29.97,NNE,32,0.0,0.0,42,0.00,,,0.00,VWS V13.01,2012-08-12 06:45:00,
2012-08-12 01:50:00,74.4,49.9,29.97,NNE,26,0.0,0.0,42,0.00,,,0.00,VWS V13.01,2012-08-12 06:50:00,
2012-08-12 01:55:00,74.2,49.7,29.97,NNE,26,0.0,0.0,42,0.00,,,0.00,VWS V13.01,2012-08-12 06:55:00,
2012-08-12 02:00:00,74.2,50.3,29.97,NNE,31,0.0,0.0,43,0.00,,,0.00,VWS V13.01,2012-08-12 07:00:00,
2012-08-12 02:05:00,73.9,50.0,29.97,NNE,30,2.7,2.7,43,0.00,,,0.00,VWS V13.01,2012-08-12 07:05:00,
2012-08-12 02:10:00,73.7,49.8,29.97,NNE,30,0.0,0.0,43,0.00,,,0.00,VWS V13.01,2012-08-12 07:10:00,
2012-08-12 02:15:00,73.5,49.7,29.97,NNE,30,0.0,0.0,43,0.00,,,0.00,VWS V13.01,2012-08-12 07:15:00,
2012-08-12 02:20:00,73.5,49.7,29.97,NE,38,0.0,0.0,43,0.00,,,0.00,VWS V13.01,2012-08-12 07:20:00,
2012-08-12 02:25:00,73.5,50.3,29.97,NE,35,0.0,0.0,44,0.00,,,0.00,VWS V13.01,2012-08-12 07:25:00,
2012-08-12 02:30:00,73.7,50.5,29.97,North,1,0.0,0.0,44,0.00,,,0.00,VWS V13.01,2012-08-12 07:30:00,
2012-08-12 02:35:00,73.9,50.0,29.97,North,360,0.0,0.0,43,0.00,,,0.00,VWS V13.01,2012-08-12 07:35:00,
2012-08-12 02:40:00,74.1,50.2,29.97,North,360,0.0,0.0,43,0.00,,,0.00,VWS V13.01,2012-08-12 07:40:00,
2012-08-12 02:45:00,73.9,50.6,29.97,North,360,0.0,0.0,44,0.00,,,0.00,VWS V13.01,2012-08-12 07:45:00,
2012-08-12 02:50:00,73.7,49.8,29.97,North,360,0.0,0.0,43,0.00,,,0.00,VWS V13.01,2012-08-12 07:50:00,
2012-08-12 02:55:00,73.3,50.1,29.97,North,6,0.0,0.0,44,0.00,,,0.00,VWS V13.01,2012-08-12 07:55:00,
2012-08-12 03:00:00,73.0,50.4,29.97,North,6,0.0,0.0,45,0.00,,,0.00,VWS V13.01,2012-08-12 08:00:00,
2012-08-12 03:05:00,72.8,50.2,29.97,North,6,0.0,0.0,45,0.00,,,0.00,VWS V13.01,2012-08-12 08:05:00,
2012-08-12 03:10:00,72.4,50.5,29.97,North,6,0.0,0.0,46,0.00,,,0.00,VWS V13.01,2012-08-12 08:10:00,
2012-08-12 03:15:00,72.4,50.5,29.97,North,6,0.0,0.0,46,0.00,,,0.00,VWS V13.01,2012-08-12 08:15:00,
2012-08-12 03:20:00,72.4,50.5,29.97,North,6,0.0,0.0,46,0.00,,,0.00,VWS V13.01,2012-08-12 08:20:00,
2012-08-12 03:25:00,72.4,50.5,29.97,NNE,17,0.0,0.0,46,0.00,,,0.00,VWS V13.01,2012-08-12 08:25:00,
2012-08-12 03:30:00,72.3,50.9,29.97,NNE,17,0.0,0.0,47,0.00,,,0.00,VWS V13.01,2012-08-12 08:30:00,
2012-08-12 03:35:00,72.3,50.9,29.97,NNE,17,0.0,0.0,47,0.00,,,0.00,VWS V13.01,2012-08-12 08:35:00,
2012-08-12 03:40:00,72.3,50.9,29.97,NNE,29,3.1,3.1,47,0.00,,,0.00,VWS V13.01,2012-08-12 08:40:00,
2012-08-12 03:45:00,72.6,51.3,29.97,NNE,30,0.0,0.0,47,0.00,,,0.00,VWS V13.01,2012-08-12 08:45:00,
2012-08-12 03:50:00,72.8,50.8,29.97,NNE,30,0.0,0.0,46,0.00,,,0.00,VWS V13.01,2012-08-12 08:50:00,
2012-08-12 03:55:00,73.2,51.2,29.97,NNE,30,0.0,0.0,46,0.00,,,0.00,VWS V13.01,2012-08-12 08:55:00,
2012-08-12 04:00:00,73.3,51.3,29.97,NNE,30,0.0,0.0,46,0.00,,,0.00,VWS V13.01,2012-08-12 09:00:00,
2012-08-12 04:05:00,73.5,50.9,29.97,NE,36,0.0,0.0,45,0.00,,,0.00,VWS V13.01,2012-08-12 09:05:00,
2012-08-12 04:10:00,74.1,51.4,29.97,NE,49,0.0,0.0,45,0.00,,,0.00,VWS V13.01,2012-08-12 09:10:00,
2012-08-12 04:15:00,74.2,51.5,29.94,NE,35,0.0,0.0,45,0.00,,,0.00,VWS V13.01,2012-08-12 09:15:00,
2012-08-12 04:20:00,74.6,51.3,29.94,NE,34,0.0,2.2,44,0.00,,,0.00,VWS V13.01,2012-08-12 09:20:00,
2012-08-12 04:25:00,74.8,51.4,29.94,North,360,0.0,0.0,44,0.00,,,0.00,VWS V13.01,2012-08-12 09:25:00,
2012-08-12 04:30:00,75.0,51.0,29.97,North,358,0.0,0.0,43,0.00,,,0.00,VWS V13.01,2012-08-12 09:30:00,
2012-08-12 04:35:00,75.1,51.1,29.97,North,358,0.0,0.0,43,0.00,,,0.00,VWS V13.01,2012-08-12 09:35:00,
2012-08-12 04:40:00,75.3,51.3,29.97,North,9,0.0,0.0,43,0.00,,,0.00,VWS V13.01,2012-08-12 09:40:00,
2012-08-12 04:45:00,75.3,51.3,29.97,NE,38,0.0,0.0,43,0.00,,,0.00,VWS V13.01,2012-08-12 09:45:00,
2012-08-12 04:50:00,75.5,51.5,29.97,NE,38,3.1,3.6,43,0.00,,,0.00,VWS V13.01,2012-08-12 09:50:00,
2012-08-12 04:55:00,75.5,51.5,29.97,NNE,25,3.1,3.1,43,0.00,,,0.00,VWS V13.01,2012-08-12 09:55:00,
2012-08-12 05:00:00,75.7,51.6,29.97,NNE,31,2.7,2.7,43,0.00,,,0.00,VWS V13.01,2012-08-12 10:00:00,
2012-08-12 05:05:00,75.7,51.6,29.97,ENE,62,0.0,0.0,43,0.00,,,0.00,VWS V13.01,2012-08-12 10:05:00,
2012-08-12 05:10:00,75.7,51.6,29.97,NE,49,0.0,0.0,43,0.00,,,0.00,VWS V13.01,2012-08-12 10:10:00,
2012-08-12 05:15:00,75.7,51.6,29.97,North,1,0.0,0.0,43,0.00,,,0.00,VWS V13.01,2012-08-12 10:15:00,
2012-08-12 05:20:00,75.7,51.6,29.97,NNE,30,2.2,2.2,43,0.00,,,0.00,VWS V13.01,2012-08-12 10:20:00,
2012-08-12 05:25:00,75.7,51.6,29.97,NE,35,2.7,2.7,43,0.00,,,0.00,VWS V13.01,2012-08-12 10:25:00,
2012-08-12 05:30:00,75.7,51.6,29.97,NNE,28,3.1,3.1,43,0.00,,,0.00,VWS V13.01,2012-08-12 10:30:00,
2012-08-12 05:35:00,75.7,51.6,29.97,NE,39,3.1,3.1,43,0.00,,,0.00,VWS V13.01,2012-08-12 10:35:00,
2012-08-12 05:40:00,75.5,51.5,29.97,NE,36,3.1,3.1,43,0.00,,,0.00,VWS V13.01,2012-08-12 10:40:00,
2012-08-12 05:45:00,75.5,51.5,29.97,NE,50,2.7,3.1,43,0.00,,,0.00,VWS V13.01,2012-08-12 10:45:00,
2012-08-12 05:50:00,75.5,51.5,29.97,NE,34,3.1,3.1,43,0.00,,,0.00,VWS V13.01,2012-08-12 10:50:00,
2012-08-12 05:55:00,75.7,51.6,29.97,NNE,30,2.7,4.0,43,0.00,,,0.00,VWS V13.01,2012-08-12 10:55:00,
2012-08-12 06:00:00,75.7,51.6,29.97,NE,37,3.1,3.1,43,0.00,,,0.00,VWS V13.01,2012-08-12 11:00:00,
2012-08-12 06:05:00,75.7,51.6,29.97,NE,34,2.7,2.7,43,0.00,,,0.00,VWS V13.01,2012-08-12 11:05:00,
2012-08-12 06:10:00,75.7,51.6,29.97,NNE,30,2.7,2.7,43,0.00,,,0.00,VWS V13.01,2012-08-12 11:10:00,
2012-08-12 06:15:00,75.5,51.5,29.97,NE,34,2.2,3.1,43,0.00,,,0.00,VWS V13.01,2012-08-12 11:15:00,
2012-08-12 06:20:00,75.5,51.5,30.00,NNE,21,0.0,2.7,43,0.00,,,0.00,VWS V13.01,2012-08-12 11:20:00,
2012-08-12 06:25:00,75.5,51.5,30.00,NNE,16,3.1,3.1,43,0.00,,,0.00,VWS V13.01,2012-08-12 11:25:00,
2012-08-12 06:30:00,75.5,51.5,30.00,NNW,341,2.2,2.2,43,0.00,,,0.00,VWS V13.01,2012-08-12 11:30:00,
2012-08-12 06:35:00,75.5,51.5,30.00,NNW,346,0.0,0.0,43,0.00,,,0.00,VWS V13.01,2012-08-12 11:35:00,
2012-08-12 06:40:00,75.5,51.5,30.00,NE,43,0.0,0.0,43,0.00,,,0.00,VWS V13.01,2012-08-12 11:40:00,
2012-08-12 06:45:00,75.7,51.6,30.00,North,354,2.2,2.2,43,0.00,,,0.00,VWS V13.01,2012-08-12 11:45:00,
2012-08-12 06:50:00,75.9,51.8,30.00,NNE,20,3.1,3.1,43,0.00,,,0.00,VWS V13.01,2012-08-12 11:50:00,
2012-08-12 06:55:00,75.9,51.8,30.00,ENE,65,0.0,0.0,43,0.00,,,0.00,VWS V13.01,2012-08-12 11:55:00,
2012-08-12 07:00:00,75.9,51.8,30.00,NNE,28,3.6,3.6,43,0.00,,,0.00,VWS V13.01,2012-08-12 12:00:00,
2012-08-12 07:05:00,75.9,51.8,30.00,NNE,29,0.0,0.0,43,0.00,,,0.00,VWS V13.01,2012-08-12 12:05:00,
2012-08-12 07:10:00,75.7,51.6,30.00,NNE,29,0.0,0.0,43,0.00,,,0.00,VWS V13.01,2012-08-12 12:10:00,
2012-08-12 07:15:00,75.7,51.6,30.00,North,9,0.0,0.0,43,0.00,,,0.00,VWS V13.01,2012-08-12 12:15:00,
2012-08-12 07:20:00,75.7,51.6,30.00,North,10,0.0,0.0,43,0.00,,,0.00,VWS V13.01,2012-08-12 12:20:00,
2012-08-12 07:25:00,75.9,51.8,30.00,North,10,0.0,0.0,43,0.00,,,0.00,VWS V13.01,2012-08-12 12:25:00,
2012-08-12 07:30:00,75.9,51.8,30.03,NNE,32,0.0,0.0,43,0.00,,,0.00,VWS V13.01,2012-08-12 12:30:00,
2012-08-12 07:35:00,76.0,52.0,30.03,NE,41,0.0,0.0,43,0.00,,,0.00,VWS V13.01,2012-08-12 12:35:00,
2012-08-12 07:40:00,76.2,52.1,30.03,NNE,30,0.0,0.0,43,0.00,,,0.00,VWS V13.01,2012-08-12 12:40:00,
2012-08-12 07:45:00,76.2,52.1,30.00,NNE,31,3.1,3.1,43,0.00,,,0.00,VWS V13.01,2012-08-12 12:45:00,
2012-08-12 07:50:00,76.4,52.3,30.00,ENE,67,0.0,0.0,43,0.00,,,0.00,VWS V13.01,2012-08-12 12:50:00,
2012-08-12 07:55:00,76.8,52.6,30.00,NE,50,0.0,0.0,43,0.00,,,0.00,VWS V13.01,2012-08-12 12:55:00,
2012-08-12 08:00:00,76.9,52.1,30.00,ENE,66,0.0,0.0,42,0.00,,,0.00,VWS V13.01,2012-08-12 13:00:00,
2012-08-12 08:05:00,77.1,52.3,30.00,NE,42,3.6,4.0,42,0.00,,,0.00,VWS V13.01,2012-08-12 13:05:00,
2012-08-12 08:10:00,77.3,52.5,30.00,ENE,68,0.0,2.7,42,0.00,,,0.00,VWS V13.01,2012-08-12 13:10:00,
2012-08-12 08:15:00,77.5,52.6,30.03,NE,55,3.1,3.1,42,0.00,,,0.00,VWS V13.01,2012-08-12 13:15:00,
2012-08-12 08:20:00,77.5,52.6,30.03,ENE,59,4.9,4.9,42,0.00,,,0.00,VWS V13.01,2012-08-12 13:20:00,
2012-08-12 08:25:00,77.5,52.6,30.03,ENE,67,3.1,3.1,42,0.00,,,0.00,VWS V13.01,2012-08-12 13:25:00,
2012-08-12 08:30:00,77.7,52.8,30.00,NNE,27,2.7,3.6,42,0.00,,,0.00,VWS V13.01,2012-08-12 13:30:00,
2012-08-12 08:35:00,77.8,52.3,30.00,NE,45,3.1,6.3,41,0.00,,,0.00,VWS V13.01,2012-08-12 13:35:00,
2012-08-12 08:40:00,77.8,52.3,30.00,NE,36,4.9,4.9,41,0.00,,,0.00,VWS V13.01,2012-08-12 13:40:00,
2012-08-12 08:45:00,77.8,52.3,30.00,NE,42,4.9,4.9,41,0.00,,,0.00,VWS V13.01,2012-08-12 13:45:00,
2012-08-12 08:50:00,78.0,53.1,30.00,ENE,62,3.6,3.6,42,0.00,,,0.00,VWS V13.01,2012-08-12 13:50:00,
2012-08-12 08:55:00,78.2,52.6,30.00,ENE,60,5.4,5.4,41,0.00,,,0.00,VWS V13.01,2012-08-12 13:55:00,
2012-08-12 09:00:00,78.2,52.6,30.00,NE,45,7.6,7.6,41,0.00,,,0.00,VWS V13.01,2012-08-12 14:00:00,
2012-08-12 09:05:00,78.6,52.9,30.00,ENE,75,4.9,4.9,41,0.00,,,0.00,VWS V13.01,2012-08-12 14:05:00,
2012-08-12 09:10:00,79.5,53.7,30.00,NE,38,5.8,5.8,41,0.00,,,0.00,VWS V13.01,2012-08-12 14:10:00,
2012-08-12 09:15:00,80.0,53.5,30.00,North,353,3.6,3.6,40,0.00,,,0.00,VWS V13.01,2012-08-12 14:15:00,
2012-08-12 09:20:00,80.5,52.6,30.00,NE,52,4.0,5.8,38,0.00,,,0.00,VWS V13.01,2012-08-12 14:20:00,
2012-08-12 09:25:00,80.4,52.5,30.00,NE,40,4.0,6.3,38,0.00,,,0.00,VWS V13.01,2012-08-12 14:25:00,
2012-08-12 09:30:00,80.7,52.8,30.00,NNE,30,2.7,5.4,38,0.00,,,0.00,VWS V13.01,2012-08-12 14:30:00,
2012-08-12 09:35:00,81.4,53.4,30.00,NNE,24,2.2,2.7,38,0.00,,,0.00,VWS V13.01,2012-08-12 14:35:00,
2012-08-12 09:40:00,82.5,52.9,30.00,NE,38,2.7,2.7,36,0.00,,,0.00,VWS V13.01,2012-08-12 14:40:00,
2012-08-12 09:45:00,82.9,52.5,30.00,NE,36,3.1,3.1,35,0.00,,,0.00,VWS V13.01,2012-08-12 14:45:00,
2012-08-12 09:50:00,83.2,52.0,30.00,SE,124,3.1,5.8,34,0.00,,,0.00,VWS V13.01,2012-08-12 14:50:00,
2012-08-12 09:55:00,83.4,52.9,30.00,East,79,2.7,2.7,35,0.00,,,0.00,VWS V13.01,2012-08-12 14:55:00,
2012-08-12 10:00:00,84.3,52.1,30.00,ENE,72,5.8,5.8,33,0.00,,,0.00,VWS V13.01,2012-08-12 15:00:00,
2012-08-12 10:05:00,84.0,51.8,30.00,ENE,59,3.6,3.6,33,0.00,,,0.00,VWS V13.01,2012-08-12 15:05:00,
2012-08-12 10:10:00,84.3,52.1,30.00,North,11,5.4,5.4,33,0.00,,,0.00,VWS V13.01,2012-08-12 15:10:00,
2012-08-12 10:15:00,84.9,51.8,29.97,East,87,3.1,5.4,32,0.00,,,0.00,VWS V13.01,2012-08-12 15:15:00,
2012-08-12 10:20:00,85.4,52.2,29.97,ENE,63,5.4,5.4,32,0.00,,,0.00,VWS V13.01,2012-08-12 15:20:00,
2012-08-12 10:25:00,85.8,52.5,29.97,NE,38,3.1,3.1,32,0.00,,,0.00,VWS V13.01,2012-08-12 15:25:00,
2012-08-12 10:30:00,85.8,51.7,29.97,ENE,66,8.1,8.1,31,0.00,,,0.00,VWS V13.01,2012-08-12 15:30:00,
2012-08-12 10:35:00,86.1,52.0,29.97,ESE,121,6.3,6.3,31,0.00,,,0.00,VWS V13.01,2012-08-12 15:35:00,
2012-08-12 10:40:00,86.5,52.3,29.97,NE,48,5.4,6.3,31,0.00,,,0.00,VWS V13.01,2012-08-12 15:40:00,
2012-08-12 10:45:00,86.7,52.5,29.97,East,95,5.8,6.3,31,0.00,,,0.00,VWS V13.01,2012-08-12 15:45:00,
2012-08-12 10:50:00,87.2,52.0,29.97,ESE,116,6.3,6.3,30,0.00,,,0.00,VWS V13.01,2012-08-12 15:50:00,
2012-08-12 10:55:00,87.6,52.3,29.97,SSE,147,8.7,8.7,30,0.00,,,0.00,VWS V13.01,2012-08-12 15:55:00,
2012-08-12 11:00:00,87.4,52.2,29.94,ENE,72,5.8,5.8,30,0.00,,,0.00,VWS V13.01,2012-08-12 16:00:00,
2012-08-12 11:05:00,87.7,52.5,29.94,East,88,5.4,5.4,30,0.00,,,0.00,VWS V13.01,2012-08-12 16:05:00,
2012-08-12 11:10:00,88.5,53.1,29.94,SE,138,5.8,6.7,30,0.00,,,0.00,VWS V13.01,2012-08-12 16:10:00,
2012-08-12 11:15:00,88.6,53.3,29.94,SSW,208,3.6,7.2,30,0.00,,,0.00,VWS V13.01,2012-08-12 16:15:00,
2012-08-12 11:20:00,88.5,53.1,29.94,ENE,78,5.4,5.4,30,0.00,,,0.00,VWS V13.01,2012-08-12 16:20:00,
2012-08-12 11:25:00,88.8,53.4,29.94,ESE,123,7.6,7.6,30,0.00,,,0.00,VWS V13.01,2012-08-12 16:25:00,
2012-08-12 11:30:00,89.0,53.6,29.94,ESE,111,8.1,8.7,30,0.00,,,0.00,VWS V13.01,2012-08-12 16:30:00,
2012-08-12 11:34:00,89.2,53.7,29.97,ESE,109,3.6,7.6,30,0.00,,,0.00,VWS V13.01,2012-08-12 16:34:00,
2012-08-12 11:39:00,89.4,53.9,29.97,ESE,108,4.0,5.8,30,0.00,,,0.00,VWS V13.01,2012-08-12 16:39:00,
2012-08-12 11:44:00,89.9,54.3,29.97,ENE,75,4.0,6.3,30,0.00,,,0.00,VWS V13.01,2012-08-12 16:44:00,
2012-08-12 11:49:00,90.8,54.2,29.94,ENE,59,4.0,5.4,29,0.00,,,0.00,VWS V13.01,2012-08-12 16:49:00,
2012-08-12 11:54:00,90.4,53.9,29.94,NE,56,6.3,6.3,29,0.00,,,0.00,VWS V13.01,2012-08-12 16:54:00,
2012-08-12 11:59:00,90.1,53.6,29.94,East,88,4.9,4.9,29,0.00,,,0.00,VWS V13.01,2012-08-12 16:59:00,
2012-08-12 12:04:00,89.9,53.4,29.94,ENE,67,5.4,5.8,29,0.00,,,0.00,VWS V13.01,2012-08-12 17:04:00,
2012-08-12 12:09:00,89.5,54.0,29.94,East,80,4.0,4.0,30,0.00,,,0.00,VWS V13.01,2012-08-12 17:09:00,
2012-08-12 12:14:00,89.5,54.0,29.94,SE,133,3.6,3.6,30,0.00,,,0.00,VWS V13.01,2012-08-12 17:14:00,
2012-08-12 12:19:00,89.4,53.9,29.94,ENE,74,3.6,3.6,30,0.00,,,0.00,VWS V13.01,2012-08-12 17:19:00,
2012-08-12 12:24:00,89.7,54.2,29.94,East,95,3.6,3.6,30,0.00,,,0.00,VWS V13.01,2012-08-12 17:24:00,
2012-08-12 12:29:00,90.1,54.5,29.94,ESE,109,8.1,8.1,30,0.00,,,0.00,VWS V13.01,2012-08-12 17:29:00,
2012-08-12 12:34:00,90.1,54.5,29.94,NE,35,5.8,8.1,30,0.00,,,0.00,VWS V13.01,2012-08-12 17:34:00,
2012-08-12 12:39:00,90.3,54.7,29.94,SE,139,3.1,5.8,30,0.00,,,0.00,VWS V13.01,2012-08-12 17:39:00,
2012-08-12 12:44:00,90.8,54.2,29.94,East,96,5.8,8.3,29,0.00,,,0.00,VWS V13.01,2012-08-12 17:44:00,
2012-08-12 12:49:00,91.2,54.5,29.94,NE,50,4.0,5.8,29,0.00,,,0.00,VWS V13.01,2012-08-12 17:49:00,
2012-08-12 12:54:00,91.3,54.7,29.94,NE,50,3.1,6.3,29,0.00,,,0.00,VWS V13.01,2012-08-12 17:54:00,
2012-08-12 12:59:00,92.2,55.4,29.91,East,81,3.6,8.7,29,0.00,,,0.00,VWS V13.01,2012-08-12 17:59:00,
2012-08-12 13:04:00,92.2,55.4,29.91,ESE,111,3.6,4.9,29,0.00,,,0.00,VWS V13.01,2012-08-12 18:04:00,
2012-08-12 13:09:00,92.4,55.6,29.91,East,88,3.1,8.1,29,0.00,,,0.00,VWS V13.01,2012-08-12 18:09:00,
2012-08-12 13:14:00,92.2,55.4,29.91,East,89,8.7,10.1,29,0.00,,,0.00,VWS V13.01,2012-08-12 18:14:00,
2012-08-12 13:19:00,92.2,55.4,29.91,ESE,111,4.9,4.9,29,0.00,,,0.00,VWS V13.01,2012-08-12 18:19:00,
2012-08-12 13:24:00,92.2,55.4,29.91,ENE,78,0.0,4.0,29,0.00,,,0.00,VWS V13.01,2012-08-12 18:24:00,
2012-08-12 13:29:00,92.8,54.9,29.91,ENE,74,5.4,5.4,28,0.00,,,0.00,VWS V13.01,2012-08-12 18:29:00,
2012-08-12 13:34:00,92.8,54.9,29.91,East,84,6.3,8.1,28,0.00,,,0.00,VWS V13.01,2012-08-12 18:34:00,
2012-08-12 13:39:00,92.8,54.9,29.91,East,97,5.8,5.8,28,0.00,,,0.00,VWS V13.01,2012-08-12 18:39:00,
2012-08-12 13:44:00,92.6,54.8,29.91,ESE,108,4.9,6.3,28,0.00,,,0.00,VWS V13.01,2012-08-12 18:44:00,
2012-08-12 13:49:00,92.6,54.8,29.91,SE,124,4.0,4.0,28,0.00,,,0.00,VWS V13.01,2012-08-12 18:49:00,
2012-08-12 13:54:00,92.6,54.8,29.91,ENE,61,5.8,5.8,28,0.00,,,0.00,VWS V13.01,2012-08-12 18:54:00,
2012-08-12 13:59:00,92.8,54.9,29.91,NE,44,4.9,4.9,28,0.00,,,0.00,VWS V13.01,2012-08-12 18:59:00,
2012-08-12 14:04:00,92.6,54.8,29.91,ENE,63,3.6,4.9,28,0.00,,,0.00,VWS V13.01,2012-08-12 19:04:00,
2012-08-12 14:09:00,93.1,55.2,29.91,ESE,123,4.0,5.4,28,0.00,,,0.00,VWS V13.01,2012-08-12 19:09:00,
2012-08-12 14:14:00,93.5,55.5,29.91,South,180,3.1,4.0,28,0.00,,,0.00,VWS V13.01,2012-08-12 19:14:00,
2012-08-12 14:19:00,93.7,55.7,29.91,SE,129,3.6,3.6,28,0.00,,,0.00,VWS V13.01,2012-08-12 19:19:00,
2012-08-12 14:24:00,94.4,56.3,29.91,SSE,151,3.6,3.6,28,0.00,,,0.00,VWS V13.01,2012-08-12 19:24:00,
2012-08-12 14:29:00,94.2,56.2,29.91,SSE,157,4.9,4.9,28,0.00,,,0.00,VWS V13.01,2012-08-12 19:29:00,
2012-08-12 14:34:00,94.2,56.2,29.91,SSE,164,8.3,8.3,28,0.00,,,0.00,VWS V13.01,2012-08-12 19:34:00,
2012-08-12 14:39:00,93.7,55.7,29.91,SW,229,3.1,5.4,28,0.00,,,0.00,VWS V13.01,2012-08-12 19:39:00,
2012-08-12 14:44:00,93.5,55.5,29.91,South,183,4.9,4.9,28,0.00,,,0.00,VWS V13.01,2012-08-12 19:44:00,
2012-08-12 14:49:00,93.7,55.7,29.91,SSE,167,3.1,4.0,28,0.00,,,0.00,VWS V13.01,2012-08-12 19:49:00,
2012-08-12 14:54:00,93.5,55.5,29.91,South,169,4.9,5.8,28,0.00,,,0.00,VWS V13.01,2012-08-12 19:54:00,
2012-08-12 14:59:00,93.3,55.4,29.91,NE,37,3.1,6.3,28,0.00,,,0.00,VWS V13.01,2012-08-12 19:59:00,
2012-08-12 15:04:00,93.7,55.7,29.91,South,174,3.1,5.8,28,0.00,,,0.00,VWS V13.01,2012-08-12 20:04:00,
2012-08-12 15:09:00,94.4,56.3,29.91,ESE,104,0.0,3.1,28,0.00,,,0.00,VWS V13.01,2012-08-12 20:09:00,
2012-08-12 15:14:00,95.1,56.9,29.88,ENE,64,5.4,5.4,28,0.00,,,0.00,VWS V13.01,2012-08-12 20:14:00,
2012-08-12 15:19:00,95.7,57.4,29.88,SSW,200,6.3,6.3,28,0.00,,,0.00,VWS V13.01,2012-08-12 20:19:00,
2012-08-12 15:24:00,95.8,56.5,29.88,NNW,334,0.0,2.7,27,0.00,,,0.00,VWS V13.01,2012-08-12 20:24:00,
2012-08-12 15:29:00,96.0,56.7,29.88,East,84,7.2,7.2,27,0.00,,,0.00,VWS V13.01,2012-08-12 20:29:00,
2012-08-12 15:34:00,96.0,56.7,29.88,East,85,4.9,10.1,27,0.00,,,0.00,VWS V13.01,2012-08-12 20:34:00,
2012-08-12 15:39:00,95.8,56.5,29.88,WNW,282,3.1,4.9,27,0.00,,,0.00,VWS V13.01,2012-08-12 20:39:00,
2012-08-12 15:44:00,95.8,56.5,29.88,North,10,0.0,0.0,27,0.00,,,0.00,VWS V13.01,2012-08-12 20:44:00,
2012-08-12 15:49:00,96.6,57.1,29.88,SSW,194,3.6,5.4,27,0.00,,,0.00,VWS V13.01,2012-08-12 20:49:00,
2012-08-12 15:54:00,96.4,57.0,29.88,SW,236,2.7,3.6,27,0.00,,,0.00,VWS V13.01,2012-08-12 20:54:00,
2012-08-12 15:59:00,96.2,56.8,29.88,ESE,111,3.1,3.1,27,0.00,,,0.00,VWS V13.01,2012-08-12 20:59:00,
2012-08-12 16:04:00,96.2,56.8,29.88,ENE,70,3.6,4.0,27,0.00,,,0.00,VWS V13.01,2012-08-12 21:04:00,
2012-08-12 16:09:00,96.2,56.8,29.88,NE,37,0.0,3.1,27,0.00,,,0.00,VWS V13.01,2012-08-12 21:09:00,
2012-08-12 16:14:00,96.6,57.1,29.88,SSW,193,6.3,6.3,27,0.00,,,0.00,VWS V13.01,2012-08-12 21:14:00,
2012-08-12 16:19:00,97.1,57.6,29.88,SSE,152,0.0,4.0,27,0.00,,,0.00,VWS V13.01,2012-08-12 21:19:00,
2012-08-12 16:24:00,97.6,58.0,29.88,East,101,7.6,8.7,27,0.00,,,0.00,VWS V13.01,2012-08-12 21:24:00,
2012-08-12 16:29:00,97.6,58.0,29.88,East,94,2.7,5.4,27,0.00,,,0.00,VWS V13.01,2012-08-12 21:29:00,
2012-08-12 16:34:00,97.3,57.7,29.88,SSE,147,8.7,10.1,27,0.00,,,0.00,VWS V13.01,2012-08-12 21:34:00,
2012-08-12 16:39:00,97.3,57.7,29.88,ESE,121,4.0,5.8,27,0.00,,,0.00,VWS V13.01,2012-08-12 21:39:00,
2012-08-12 16:44:00,97.5,57.9,29.88,SSE,150,4.0,8.3,27,0.00,,,0.00,VWS V13.01,2012-08-12 21:44:00,
2012-08-12 16:49:00,97.6,58.0,29.88,SE,143,3.1,3.6,27,0.00,,,0.00,VWS V13.01,2012-08-12 21:49:00,
2012-08-12 16:54:00,97.8,58.2,29.88,NE,39,0.0,0.0,27,0.00,,,0.00,VWS V13.01,2012-08-12 21:54:00,
2012-08-12 16:59:00,98.0,57.3,29.85,SE,132,5.8,6.3,26,0.00,,,0.00,VWS V13.01,2012-08-12 21:59:00,
2012-08-12 17:04:00,97.8,58.2,29.85,SSE,158,6.3,6.3,27,0.00,,,0.00,VWS V13.01,2012-08-12 22:04:00,
2012-08-12 17:09:00,98.0,57.3,29.85,East,101,3.6,4.0,26,0.00,,,0.00,VWS V13.01,2012-08-12 22:09:00,
2012-08-12 17:14:00,98.4,57.6,29.85,ENE,78,3.1,3.1,26,0.00,,,0.00,VWS V13.01,2012-08-12 22:14:00,
2012-08-12 17:19:00,98.4,57.6,29.85,NNE,28,4.9,4.9,26,0.00,,,0.00,VWS V13.01,2012-08-12 22:19:00,
2012-08-12 17:24:00,98.4,57.6,29.85,ESE,111,3.6,4.0,26,0.00,,,0.00,VWS V13.01,2012-08-12 22:24:00,
2012-08-12 17:29:00,98.5,57.8,29.85,WNW,301,4.9,4.9,26,0.00,,,0.00,VWS V13.01,2012-08-12 22:29:00,
2012-08-12 17:34:00,98.0,57.3,29.85,SSE,153,0.0,2.7,26,0.00,,,0.00,VWS V13.01,2012-08-12 22:34:00,
2012-08-12 17:39:00,97.3,56.7,29.85,ESE,119,3.6,5.4,26,0.00,,,0.00,VWS V13.01,2012-08-12 22:39:00,
2012-08-12 17:44:00,97.1,57.6,29.85,East,88,3.1,4.9,27,0.00,,,0.00,VWS V13.01,2012-08-12 22:44:00,
2012-08-12 17:49:00,97.3,57.7,29.85,East,91,3.1,3.1,27,0.00,,,0.00,VWS V13.01,2012-08-12 22:49:00,
2012-08-12 17:54:00,97.5,57.9,29.85,ENE,66,0.0,0.0,27,0.00,,,0.00,VWS V13.01,2012-08-12 22:54:00,
2012-08-12 17:59:00,97.6,58.0,29.85,East,87,0.0,0.0,27,0.00,,,0.00,VWS V13.01,2012-08-12 22:59:00,
2012-08-12 18:04:00,97.8,58.2,29.85,East,92,5.8,5.8,27,0.00,,,0.00,VWS V13.01,2012-08-12 23:04:00,
2012-08-12 18:09:00,97.6,58.0,29.85,ENE,61,3.6,5.4,27,0.00,,,0.00,VWS V13.01,2012-08-12 23:09:00,
2012-08-12 18:14:00,97.8,58.2,29.83,ESE,106,3.6,4.9,27,0.00,,,0.00,VWS V13.01,2012-08-12 23:14:00,
2012-08-12 18:19:00,97.8,58.2,29.83,ESE,103,5.8,8.1,27,0.00,,,0.00,VWS V13.01,2012-08-12 23:19:00,
2012-08-12 18:24:00,97.5,57.9,29.83,ENE,58,5.4,5.4,27,0.00,,,0.00,VWS V13.01,2012-08-12 23:24:00,
2012-08-12 18:29:00,97.3,57.7,29.83,NNE,13,4.0,7.6,27,0.00,,,0.00,VWS V13.01,2012-08-12 23:29:00,
2012-08-12 18:34:00,97.1,57.6,29.83,ENE,67,2.7,4.0,27,0.00,,,0.00,VWS V13.01,2012-08-12 23:34:00,
2012-08-12 18:39:00,97.1,57.6,29.83,ENE,72,0.0,3.1,27,0.00,,,0.00,VWS V13.01,2012-08-12 23:39:00,
2012-08-12 18:44:00,97.1,57.6,29.83,ENE,74,5.4,5.4,27,0.00,,,0.00,VWS V13.01,2012-08-12 23:44:00,
2012-08-12 18:49:00,97.1,57.6,29.85,East,88,3.1,3.6,27,0.00,,,0.00,VWS V13.01,2012-08-12 23:49:00,
2012-08-12 18:54:00,96.9,57.4,29.85,ENE,67,2.7,3.1,27,0.00,,,0.00,VWS V13.01,2012-08-12 23:54:00,
2012-08-12 18:59:00,96.9,57.4,29.83,East,91,4.0,4.5,27,0.00,,,0.00,VWS V13.01,2012-08-12 23:59:00,
2012-08-12 19:04:00,96.9,57.4,29.83,East,91,4.9,5.4,27,0.00,,,0.00,VWS V13.01,2012-08-13 00:04:00,
2012-08-12 19:09:00,97.1,57.6,29.83,East,86,2.7,3.1,27,0.00,,,0.00,VWS V13.01,2012-08-13 00:09:00,
2012-08-12 19:14:00,97.1,57.6,29.83,East,99,5.4,5.4,27,0.00,,,0.00,VWS V13.01,2012-08-13 00:14:00,
2012-08-12 19:19:00,96.9,57.4,29.85,ESE,104,2.7,5.4,27,0.00,,,0.00,VWS V13.01,2012-08-13 00:19:00,
2012-08-12 19:24:00,96.7,57.3,29.85,ESE,104,3.6,3.6,27,0.00,,,0.00,VWS V13.01,2012-08-13 00:24:00,
2012-08-12 19:29:00,96.6,57.1,29.85,East,84,2.7,4.0,27,0.00,,,0.00,VWS V13.01,2012-08-13 00:29:00,
2012-08-12 19:34:00,96.4,57.0,29.85,South,186,2.7,3.1,27,0.00,,,0.00,VWS V13.01,2012-08-13 00:34:00,
2012-08-12 19:39:00,96.2,56.8,29.85,ESE,103,5.8,5.8,27,0.00,,,0.00,VWS V13.01,2012-08-13 00:39:00,
2012-08-12 19:44:00,96.0,56.7,29.85,ESE,112,2.7,3.1,27,0.00,,,0.00,VWS V13.01,2012-08-13 00:44:00,
2012-08-12 19:49:00,95.8,56.5,29.85,ESE,110,2.7,3.1,27,0.00,,,0.00,VWS V13.01,2012-08-13 00:49:00,
2012-08-12 19:54:00,95.7,57.4,29.85,SE,127,3.6,3.6,28,0.00,,,0.00,VWS V13.01,2012-08-13 00:54:00,
2012-08-12 19:59:00,95.3,57.1,29.85,ESE,121,0.0,0.0,28,0.00,,,0.00,VWS V13.01,2012-08-13 00:59:00,
2012-08-12 20:03:00,95.1,56.9,29.85,SE,143,0.0,0.0,28,0.00,,,0.00,VWS V13.01,2012-08-13 01:03:00,
2012-08-12 20:08:00,94.8,56.6,29.85,East,79,3.6,3.6,28,0.00,,,0.00,VWS V13.01,2012-08-13 01:08:00,
2012-08-12 20:13:00,94.4,56.3,29.85,West,266,0.0,0.0,28,0.00,,,0.00,VWS V13.01,2012-08-13 01:13:00,
2012-08-12 20:18:00,94.2,56.2,29.85,West,264,0.0,0.0,28,0.00,,,0.00,VWS V13.01,2012-08-13 01:18:00,
2012-08-12 20:23:00,93.7,56.7,29.85,NNW,330,0.0,0.0,29,0.00,,,0.00,VWS V13.01,2012-08-13 01:23:00,
2012-08-12 20:28:00,93.1,56.2,29.85,NNW,343,0.0,0.0,29,0.00,,,0.00,VWS V13.01,2012-08-13 01:28:00,
2012-08-12 20:33:00,92.4,55.6,29.85,North,10,2.2,3.1,29,0.00,,,0.00,VWS V13.01,2012-08-13 01:33:00,
2012-08-12 20:38:00,91.9,55.1,29.85,North,353,0.0,2.2,29,0.00,,,0.00,VWS V13.01,2012-08-13 01:38:00,
2012-08-12 20:43:00,91.7,55.9,29.85,North,359,0.0,0.0,30,0.00,,,0.00,VWS V13.01,2012-08-13 01:43:00,
2012-08-12 20:48:00,91.3,55.6,29.85,NNE,31,0.0,2.7,30,0.00,,,0.00,VWS V13.01,2012-08-13 01:48:00,
2012-08-12 20:53:00,91.2,55.4,29.85,NE,41,4.0,6.3,30,0.00,,,0.00,VWS V13.01,2012-08-13 01:53:00,
2012-08-12 20:58:00,91.0,55.3,29.85,NE,49,0.0,2.7,30,0.00,,,0.00,VWS V13.01,2012-08-13 01:58:00,
2012-08-12 21:03:00,90.8,56.0,29.85,NE,45,2.7,2.7,31,0.00,,,0.00,VWS V13.01,2012-08-13 02:03:00,
2012-08-12 21:08:00,90.4,56.6,29.85,NW,326,2.7,2.7,32,0.00,,,0.00,VWS V13.01,2012-08-13 02:08:00,
2012-08-12 21:13:00,90.1,56.3,29.85,NNW,327,0.0,0.0,32,0.00,,,0.00,VWS V13.01,2012-08-13 02:13:00,
2012-08-12 21:18:00,90.1,57.1,29.88,North,353,0.0,0.0,33,0.00,,,0.00,VWS V13.01,2012-08-13 02:18:00,
2012-08-12 21:23:00,89.4,61.2,29.88,NE,34,2.7,2.7,39,0.00,,,0.00,VWS V13.01,2012-08-13 02:23:00,
2012-08-12 21:28:00,87.4,63.5,29.88,NE,34,0.0,0.0,45,0.00,,,0.00,VWS V13.01,2012-08-13 02:28:00,
2012-08-12 21:33:00,85.0,65.5,29.88,ENE,61,0.0,0.0,52,0.00,,,0.00,VWS V13.01,2012-08-13 02:33:00,
2012-08-12 21:38:00,82.9,65.1,29.88,ENE,61,0.0,0.0,55,0.00,,,0.00,VWS V13.01,2012-08-13 02:38:00,
2012-08-12 21:43:00,81.8,67.1,29.88,ENE,60,0.0,0.0,61,0.00,,,0.00,VWS V13.01,2012-08-13 02:43:00,
2012-08-12 21:48:00,80.9,67.6,29.85,ENE,60,0.0,0.0,64,0.00,,,0.00,VWS V13.01,2012-08-13 02:48:00,
2012-08-12 21:53:00,80.4,68.4,29.85,ENE,60,0.0,0.0,67,0.00,,,0.00,VWS V13.01,2012-08-13 02:53:00,
2012-08-12 21:58:00,80.0,69.8,29.85,ENE,60,0.0,0.0,71,0.00,,,0.00,VWS V13.01,2012-08-13 02:58:00,
2012-08-12 22:03:00,79.6,70.6,29.88,ENE,65,0.0,0.0,74,0.00,,,0.00,VWS V13.01,2012-08-13 03:03:00,
2012-08-12 22:08:00,79.1,70.5,29.88,ENE,65,0.0,0.0,75,0.00,,,0.00,VWS V13.01,2012-08-13 03:08:00,
2012-08-12 22:13:00,79.1,70.9,29.88,NNE,31,0.0,0.0,76,0.00,,,0.00,VWS V13.01,2012-08-13 03:13:00,
2012-08-12 22:18:00,79.1,71.7,29.88,NNE,31,0.0,0.0,78,0.00,,,0.00,VWS V13.01,2012-08-13 03:18:00,
2012-08-12 22:23:00,79.1,70.1,29.88,NNE,27,0.0,0.0,74,0.00,,,0.00,VWS V13.01,2012-08-13 03:23:00,
2012-08-12 22:28:00,79.6,70.2,29.88,NNE,27,0.0,0.0,73,0.00,,,0.00,VWS V13.01,2012-08-13 03:28:00,
2012-08-12 22:33:00,79.8,70.8,29.88,NNE,27,0.0,0.0,74,0.00,,,0.00,VWS V13.01,2012-08-13 03:33:00,
2012-08-12 22:38:00,79.8,70.0,29.88,NE,54,0.0,0.0,72,0.00,,,0.00,VWS V13.01,2012-08-13 03:38:00,
2012-08-12 22:43:00,79.8,68.3,29.88,NE,49,0.0,0.0,68,0.00,,,0.00,VWS V13.01,2012-08-13 03:43:00,
2012-08-12 22:48:00,79.8,66.1,29.88,NNE,31,0.0,0.0,63,0.00,,,0.00,VWS V13.01,2012-08-13 03:48:00,
2012-08-12 22:54:00,80.2,66.4,29.88,NNE,15,0.0,0.0,63,0.00,,,0.00,VWS V13.01,2012-08-13 03:54:00,
2012-08-12 22:59:00,80.4,66.2,29.88,NNE,15,0.0,0.0,62,0.00,,,0.00,VWS V13.01,2012-08-13 03:59:00,
2012-08-12 23:00:00,80.4,66.2,29.88,NNE,15,0.0,0.0,62,0.00,,,0.00,VWS V13.01,2012-08-13 04:00:00,
2012-08-12 23:01:00,80.5,68.1,29.88,NNE,15,0.0,0.0,66,0.00,,,0.00,VWS V13.01,2012-08-13 04:01:00,
2012-08-12 23:06:00,80.5,66.8,29.88,NNE,27,0.0,0.0,63,0.00,,,0.00,VWS V13.01,2012-08-13 04:06:00,
2012-08-12 23:11:00,80.7,65.1,29.88,NNE,27,0.0,0.0,59,0.00,,,0.00,VWS V13.01,2012-08-13 04:11:00,
2012-08-12 23:16:00,80.7,64.1,29.88,NNW,336,0.0,0.0,57,0.00,,,0.00,VWS V13.01,2012-08-13 04:16:00,
2012-08-12 23:21:00,81.4,63.7,29.88,North,355,0.0,0.0,55,0.00,,,0.00,VWS V13.01,2012-08-13 04:21:00,
2012-08-12 23:27:00,82.0,63.2,29.88,North,358,0.0,0.0,53,0.00,,,0.00,VWS V13.01,2012-08-13 04:27:00,
2012-08-12 23:32:00,82.5,64.2,29.88,North,358,0.0,0.0,54,0.00,,,0.00,VWS V13.01,2012-08-13 04:32:00,
2012-08-12 23:37:00,82.5,64.7,29.88,NNE,29,0.0,0.0,55,0.00,,,0.00,VWS V13.01,2012-08-13 04:37:00,
2012-08-12 23:42:00,82.2,63.9,29.88,NNE,29,0.0,0.0,54,0.00,,,0.00,VWS V13.01,2012-08-13 04:42:00,
2012-08-12 23:47:00,82.2,63.3,29.85,NNE,29,0.0,0.0,53,0.00,,,0.00,VWS V13.01,2012-08-13 04:47:00,
2012-08-12 23:52:00,82.2,62.8,29.85,NNE,29,0.0,0.0,52,0.00,,,0.00,VWS V13.01,2012-08-13 04:52:00,
2012-08-12 23:57:00,82.3,64.6,29.85,NNE,29,0.0,0.0,55,0.00,,,0.00,VWS V13.01,2012-08-13 04:57:00,